Redding, CA

5:56 PM PDT on August 02, 2015 (GMT -0700)
Tilton Mine | | Change Station
CLOSE
Current Station
Personal Weather Station
Location: Redding, CA
Elevation: 791 ft
Nearby Weather Stations

Elev 791 ft 40.58 °N, 122.46 °W | Updated 4 minutes ago

Partly Cloudy
Partly Cloudy
91.5 °F
Feels Like 90 °F
N
0.0
Wind Variable Wind from North
Gusts 4.0 mph

Today
High -- | Low -- °F
--% Chance of Precip.
Yesterday
High -- | Low -- °F
Precip. -- in
6:07 AM 8:23 PM
Waning Gibbous, 91% visible
Pressure 29.77 in
Visibility 10.0 miles
Clouds Clear
Heat Index 90 °F
Dew Point 57 °F
Humidity 31%
Rainfall 0.00 in
Snow Depth Not available.
UV 2 out of 12
Pollen 6.60 out of 12
Air Quality Not available.
Flu Activity Not available.
METAR KRDD 030053Z VRB04KT 10SM CLR 34/12 A2978 RMK AO2 SLP079 T03440117 $

More Conditions Fewer Conditions

Pressure 29.77 in
Visibility 10.0 miles
Clouds Clear
Heat Index 90 °F
Dew Point 57 °F
Humidity 31%
Rainfall 0.00 in
Snow Depth Not available.
UV 2 out of 12
Pollen 6.60 out of 12
Air Quality Not available.
Flu Activity Not available.
METAR KRDD 030053Z VRB04KT 10SM CLR 34/12 A2978 RMK AO2 SLP079 T03440117 $

More Conditions Fewer Conditions

10-Day Weather Forecast

×

Almanac

Astronomy

Aug. 02, 2015 Rise Set
Actual Time
Civil Twilight
Nautical Twilight
Astronomical Twilight
Moon
Length of Visible Light
Length of Day
Tomorrow will be .
, % of the Moon is Illuminated

Today's Extremes

State Highs State Lows

Community

WunderPhotos

Upload Photos

1,843,474 photos uploaded!

WunderBlogs® & News

Nearby

Air Quality

  Air Quality AQ Index Pollutant
Not available.

Snow Depth

Station Depth Elevation

Earthquake Activity

City Distance Mag. Time & Date
Minimum magnitude displayed is 2.5.

Coastal Water Temperatures

Place Temperature

Stations

Nearby Weather Stations

Station Location Temp. Windchill Dew Point Humidity Wind Precip. Elev Updated Type